Terminal Aerodrome Forecast
Issued by NWS Bismarck, ND

Home | Current Version | Previous Version | Text Only | Print | Product List | Glossary Off
Versions: 1 2 3 4 5 6 7 8 9 10 11 12 13 14 15 16 17 18 19 20 21

000
FTUS43 KBIS 031926 AAA
TAFISN
TAF AMD
KISN 031926Z 0319/0418 17006KT P6SM SCT050
     FM040800 15004KT 5SM FU SKC
     FM041600 18006KT P6SM SCT070=

USA.gov is the U.S. government's official web portal to all federal, state and local government web resources and services.